Bao An Cheng 69 — BVBD5 — position and weather

sailwx.info

Track history (hours):
 
Tides and Currents Weather Stations Pressure Air Temp Water Temp Dewpoint Dewpoint Depression Visibility Wind Speed Wind Dir Waves Ship Positions

Bao An Cheng 69

Last reported at 2017-Jul-22 20:26 UTC. Time now 2017-Jul-22 20:44 UTC.
Position N 24°27' E 118°01'.

Length 121 m; draft 6.5 m.

Type: Cargo ship. MMSI: 412703090.

Date/timePositionNaut miles runAvg speedWind from/ knotsBaromVisibWave heightAir tempDewpointWater temp
2017-Jul-22 20:26N 24°27' E 118°01'0 0.0
2017-Jul-22 19:53N 24°27' E 118°01'0 0.0
2017-Jul-22 19:11N 24°27' E 118°01'0 0.0
2017-Jul-22 18:56N 24°27' E 118°01'0 0.0
2017-Jul-22 18:17N 24°27' E 118°01'0 0.0
2017-Jul-22 17:56N 24°27' E 118°01'1 1.2
2017-Jul-22 17:30N 24°27' E 118°01'3 5.3
2017-Jul-22 17:00N 24°26' E 118°04'4 8.9
2017-Jul-22 16:30N 24°23' E 118°08'5 9.5
2017-Jul-22 16:00N 24°21' E 118°12'510.7
2017-Jul-22 15:31N 24°20' E 118°18'610.3
2017-Jul-22 14:57N 24°20' E 118°24'10 9.9
2017-Jul-22 13:59N 24°26' E 118°33'21 8.8
2017-Jul-22 11:38N 24°42' E 118°47'1 8.3
2017-Jul-22 11:29N 24°43' E 118°47'4 7.8
2017-Jul-22 10:59N 24°47' E 118°48'4 7.4
2017-Jul-22 10:29N 24°49' E 118°45'1 1.9
2017-Jul-22 09:57N 24°49' E 118°43'0 0.0
2017-Jul-22 09:30N 24°49' E 118°43'0 0.0
2017-Jul-22 09:00N 24°49' E 118°43'0 0.0
2017-Jul-22 08:30N 24°49' E 118°43'0 0.0
2017-Jul-22 07:48N 24°49' E 118°43'0 0.0
2017-Jul-22 07:30N 24°49' E 118°43'0 0.0
2017-Jul-22 06:54N 24°49' E 118°43'0 0.0
2017-Jul-22 06:30N 24°49' E 118°43'0 0.0
2017-Jul-22 06:00N 24°49' E 118°43'0 0.0
2017-Jul-22 05:30N 24°49' E 118°43'0 0.0
2017-Jul-22 04:12N 24°49' E 118°43'0 0.0
2017-Jul-22 03:54N 24°49' E 118°43'0 0.0
2017-Jul-22 03:18N 24°49' E 118°43'0 0.0
2017-Jul-22 03:00N 24°49' E 118°43'0 0.0
2017-Jul-22 02:24N 24°49' E 118°43'0 0.0
2017-Jul-22 01:54N 24°49' E 118°43'0 0.0
2017-Jul-22 01:30N 24°49' E 118°43'0 0.0
2017-Jul-22 00:48N 24°49' E 118°43'0 0.0
2017-Jul-22 00:30N 24°49' E 118°43'0 0.0
2017-Jul-21 23:54N 24°49' E 118°43'0 0.0
2017-Jul-21 23:30N 24°49' E 118°43'0 0.0
2017-Jul-21 23:00N 24°49' E 118°43'0 0.0
2017-Jul-21 22:24N 24°49' E 118°43'0 0.0
2017-Jul-21 22:00N 24°49' E 118°43'0 0.0
2017-Jul-21 21:24N 24°49' E 118°43'0 0.0
2017-Jul-21 20:54N 24°49' E 118°43'0 0.0
2017-Jul-21 20:24N 24°49' E 118°43'0 0.0
2017-Jul-21 20:00N 24°49' E 118°43'0 0.1
2017-Jul-21 19:30N 24°49' E 118°43'2 5.1
2017-Jul-21 19:00N 24°49' E 118°46'2 3.9
2017-Jul-21 18:28N 24°48' E 118°48'0 0.0
2017-Jul-21 17:58N 24°48' E 118°48'0 0.0
2017-Jul-21 17:22N 24°48' E 118°48'0 0.0
2017-Jul-21 16:58N 24°48' E 118°48'0 0.0
2017-Jul-21 15:22N 24°48' E 118°48'0 0.1
2017-Jul-21 14:10N 24°48' E 118°48'0 0.0
2017-Jul-21 13:58N 24°48' E 118°48'0 0.0
2017-Jul-21 12:25N 24°48' E 118°48'0 0.0
2017-Jul-21 11:01N 24°48' E 118°48'0 0.0
2017-Jul-21 10:49N 24°48' E 118°48'0 0.0
2017-Jul-21 10:22N 24°48' E 118°48'3 8.0
2017-Jul-21 10:00N 24°45' E 118°48'612.4
2017-Jul-21 09:29N 24°39' E 118°45'812.5
2017-Jul-21 08:52N 24°32' E 118°41'512.4
2017-Jul-21 08:29N 24°29' E 118°38'611.8
2017-Jul-21 08:00N 24°25' E 118°34'611.7
2017-Jul-21 07:30N 24°20' E 118°29'611.2
2017-Jul-21 07:00N 24°16' E 118°25'510.7
2017-Jul-21 06:30N 24°12' E 118°21'610.3
2017-Jul-21 05:58N 24°08' E 118°17'510.4
2017-Jul-21 05:30N 24°05' E 118°13'5 9.7
2017-Jul-21 05:00N 24°02' E 118°09'5 9.7
2017-Jul-21 04:31N 23°59' E 118°05'5 9.4
2017-Jul-21 04:00N 23°56' E 118°01'5 9.2
2017-Jul-21 03:30N 23°53' E 117°57'14 9.7
2017-Jul-21 02:06N 23°45' E 117°45'110.2
2017-Jul-21 02:00N 23°44' E 117°44'510.6
2017-Jul-21 01:30N 23°41' E 117°40'812.0
2017-Jul-21 00:50N 23°36' E 117°32'3411.5
2017-Jul-20 21:50N 23°20' E 116°60'3 9.8
2017-Jul-20 21:30N 23°18' E 116°56'510.1
2017-Jul-20 21:01N 23°16' E 116°51'5 9.8
2017-Jul-20 20:30N 23°18' E 116°47'4 7.7
2017-Jul-20 20:00N 23°21' E 116°43'0 0.2
2017-Jul-20 19:26N 23°21' E 116°43'0 0.0
2017-Jul-20 18:56N 23°21' E 116°43'0 0.0
2017-Jul-20 18:26N 23°21' E 116°43'0 0.0
2017-Jul-20 17:56N 23°21' E 116°43'0 0.0
2017-Jul-20 17:26N 23°21' E 116°43'0 0.0
2017-Jul-20 16:56N 23°21' E 116°43'0 0.0
2017-Jul-20 16:26N 23°21' E 116°43'0 0.0
2017-Jul-20 15:56N 23°21' E 116°43'0 0.0
2017-Jul-20 15:26N 23°21' E 116°43'0 0.0
2017-Jul-20 14:56N 23°21' E 116°43'0 0.0
2017-Jul-20 13:50N 23°21' E 116°43'0 0.0
2017-Jul-20 13:26N 23°21' E 116°43'0 0.0
2017-Jul-20 12:50N 23°21' E 116°43'0 0.0
2017-Jul-20 12:26N 23°21' E 116°43'0 0.0
2017-Jul-20 11:56N 23°21' E 116°43'0 0.0
2017-Jul-20 11:26N 23°21' E 116°43'0 0.0
2017-Jul-20 10:56N 23°21' E 116°43'0 0.0
2017-Jul-20 10:26N 23°21' E 116°43'0 0.0
2017-Jul-20 09:50N 23°21' E 116°43'0 0.0
2017-Jul-20 09:26N 23°21' E 116°43'0 0.0
2017-Jul-20 08:50N 23°21' E 116°43'0 0.0
2017-Jul-20 08:29N 23°21' E 116°43'0 0.0
2017-Jul-20 07:56N 23°21' E 116°43'0 0.0
2017-Jul-20 07:29N 23°21' E 116°43'0 0.0
2017-Jul-20 06:50N 23°21' E 116°43'0 0.0
2017-Jul-20 06:26N 23°21' E 116°43'0 0.0
2017-Jul-20 05:50N 23°21' E 116°43'0 0.0
2017-Jul-20 05:26N 23°21' E 116°43'0 0.0
2017-Jul-20 04:56N 23°21' E 116°43'0 0.0
2017-Jul-20 04:30N 23°21' E 116°43'0 0.0
2017-Jul-20 03:56N 23°21' E 116°43'0 0.0
2017-Jul-20 03:26N 23°21' E 116°43'0 0.0
2017-Jul-20 02:56N 23°21' E 116°43'0 0.0
2017-Jul-20 02:08N 23°21' E 116°43'0 0.0
2017-Jul-20 01:44N 23°21' E 116°43'0 0.0
2017-Jul-20 01:26N 23°21' E 116°43'0 0.0
2017-Jul-20 00:56N 23°21' E 116°43'0 0.0
2017-Jul-20 00:26N 23°21' E 116°43'0 0.6
2017-Jul-20 00:00N 23°21' E 116°44'3 6.6
2017-Jul-19 23:30N 23°19' E 116°46'4 7.4
2017-Jul-19 23:00N 23°16' E 116°50'1 1.6
2017-Jul-19 22:21N 23°17' E 116°51'0 0.1
2017-Jul-19 21:51N 23°17' E 116°51'0 0.0
2017-Jul-19 21:27N 23°17' E 116°51'0 0.0
2017-Jul-19 20:45N 23°17' E 116°51'0 0.1
2017-Jul-19 20:21N 23°17' E 116°51'0 0.1
2017-Jul-19 19:57N 23°17' E 116°51'0 0.1
2017-Jul-19 19:15N 23°17' E 116°51'0 0.4
2017-Jul-19 18:57N 23°17' E 116°50'0 0.1
2017-Jul-19 17:45N 23°17' E 116°51'0 0.0
2017-Jul-19 17:27N 23°17' E 116°51'0 0.0
2017-Jul-19 16:45N 23°17' E 116°51'0 0.0
2017-Jul-19 16:21N 23°17' E 116°51'0 0.1
2017-Jul-19 15:45N 23°17' E 116°50'0 0.1
2017-Jul-19 15:27N 23°17' E 116°50'0 0.0
2017-Jul-19 14:57N 23°17' E 116°50'0 0.1
2017-Jul-19 14:09N 23°17' E 116°50'0 0.1
2017-Jul-19 13:57N 23°17' E 116°50'0 0.1
2017-Jul-19 12:09N 23°17' E 116°51'0 0.0
2017-Jul-19 11:51N 23°17' E 116°51'0 0.0
2017-Jul-19 11:27N 23°17' E 116°51'0 0.0
2017-Jul-19 10:57N 23°17' E 116°51'0 0.0
2017-Jul-19 10:27N 23°17' E 116°51'0 0.0
2017-Jul-19 09:57N 23°17' E 116°51'0 0.0
2017-Jul-19 09:15N 23°17' E 116°51'0 0.0
2017-Jul-19 08:57N 23°17' E 116°51'0 0.0
2017-Jul-19 08:21N 23°17' E 116°51'0 0.0
2017-Jul-19 07:57N 23°17' E 116°51'0 0.0
2017-Jul-19 06:55N 23°17' E 116°51'0 0.1
2017-Jul-19 06:03N 23°17' E 116°50'0 0.2
2017-Jul-19 05:57N 23°17' E 116°50'0 0.1
2017-Jul-19 05:09N 23°17' E 116°50'0 0.0
2017-Jul-19 04:33N 23°17' E 116°50'0 0.1
2017-Jul-19 04:27N 23°17' E 116°50'0 0.0
2017-Jul-19 03:57N 23°17' E 116°50'0 0.0
2017-Jul-19 03:27N 23°17' E 116°50'0 0.0
2017-Jul-19 02:21N 23°17' E 116°50'0 0.1
2017-Jul-19 01:33N 23°17' E 116°50'0 0.1
2017-Jul-19 01:27N 23°17' E 116°50'0 0.3
2017-Jul-19 00:51N 23°17' E 116°50'0 0.0
2017-Jul-19 00:21N 23°17' E 116°50'0 0.0
2017-Jul-18 23:57N 23°17' E 116°50'0 0.0
2017-Jul-18 23:27N 23°17' E 116°50'0 0.0
2017-Jul-18 22:57N 23°17' E 116°50'0 0.0
2017-Jul-18 22:27N 23°17' E 116°50'0 0.1
2017-Jul-18 21:57N 23°17' E 116°51'0 0.0
2017-Jul-18 21:30N 23°17' E 116°51'0 0.0
2017-Jul-18 21:00N 23°17' E 116°51'0 0.0
2017-Jul-18 20:30N 23°17' E 116°51'0 0.0
2017-Jul-18 19:58N 23°17' E 116°51'0 0.0
2017-Jul-18 19:29N 23°17' E 116°51'0 0.1
2017-Jul-18 19:00N 23°17' E 116°50'0 0.1
2017-Jul-18 18:30N 23°17' E 116°51'1 1.0
2017-Jul-18 18:00N 23°17' E 116°50'4 7.3
2017-Jul-18 17:30N 23°18' E 116°54'5 9.0
2017-Jul-18 16:54N 23°20' E 116°59'37 9.2
2017-Jul-18 12:53N 23°38' E 117°35'3 8.5
2017-Jul-18 12:30N 23°40' E 117°37'5 9.1
2017-Jul-18 11:59N 23°42' E 117°42'25 8.6
2017-Jul-18 09:03N 23°58' E 118°03'0 6.2
2017-Jul-18 09:00N 23°58' E 118°04'4 8.6
2017-Jul-18 08:29N 24°01' E 118°07'4 8.3
2017-Jul-18 08:00N 24°04' E 118°11'4 8.1
2017-Jul-18 07:29N 24°06' E 118°14'4 8.5
2017-Jul-18 06:59N 24°09' E 118°18'5 8.2
2017-Jul-18 06:20N 24°13' E 118°22'3 8.5
2017-Jul-18 06:00N 24°15' E 118°24'5 8.3
2017-Jul-18 05:25N 24°18' E 118°27'4 8.3
2017-Jul-18 05:00N 24°21' E 118°30'4 8.3
2017-Jul-18 04:30N 24°24' E 118°33'4 8.5
2017-Jul-18 04:00N 24°27' E 118°37'14 8.4
2017-Jul-18 02:23N 24°38' E 118°45'3 9.2
2017-Jul-18 02:00N 24°41' E 118°47'5 9.5
2017-Jul-18 01:30N 24°46' E 118°48'4 8.7
2017-Jul-18 00:59N 24°49' E 118°45'1 2.6
2017-Jul-18 00:30N 24°49' E 118°43'0 0.0
2017-Jul-17 23:56N 24°49' E 118°43'0 0.0
2017-Jul-17 23:26N 24°49' E 118°43'0 0.0
2017-Jul-17 22:56N 24°49' E 118°43'0 0.0
2017-Jul-17 22:20N 24°49' E 118°43'0 0.0
2017-Jul-17 22:00N 24°49' E 118°43'0 0.0
2017-Jul-17 21:22N 24°49' E 118°43'0 0.0
2017-Jul-17 20:40N 24°49' E 118°43'0 0.0
2017-Jul-17 20:22N 24°49' E 118°43'0 0.0
2017-Jul-17 19:58N 24°49' E 118°43'0 0.0
2017-Jul-17 19:22N 24°49' E 118°43'0 0.0
2017-Jul-17 18:58N 24°49' E 118°43'0 0.0
2017-Jul-17 18:28N 24°49' E 118°43'0 0.0
2017-Jul-17 17:58N 24°49' E 118°43'0 0.0
2017-Jul-17 17:28N 24°49' E 118°43'0 0.0
2017-Jul-17 16:46N 24°49' E 118°43'0 0.0
2017-Jul-17 16:28N 24°49' E 118°43'0 0.0
2017-Jul-17 15:58N 24°49' E 118°43'0 0.0
2017-Jul-17 09:48N 24°49' E 118°43'0 0.0
2017-Jul-17 08:58N 24°49' E 118°43'24 1.9
2017-Jul-16 20:13N 24°26' E 118°35'310.9
2017-Jul-16 19:58N 24°24' E 118°32'511.0
2017-Jul-16 19:29N 24°21' E 118°28'511.0
2017-Jul-16 19:00N 24°18' E 118°23'510.8
2017-Jul-16 18:30N 24°15' E 118°18'611.0
2017-Jul-16 18:00N 24°11' E 118°14'611.4
2017-Jul-16 17:31N 24°07' E 118°09'811.6
2017-Jul-16 16:50N 24°01' E 118°03'5 0.2
2017-Jul-15 10:09N 24°02' E 118°09'210.0
2017-Jul-15 09:59N 24°03' E 118°10'5 9.8
2017-Jul-15 09:26N 24°06' E 118°14'5 9.8
2017-Jul-15 08:55N 24°10' E 118°18'6 9.9
2017-Jul-15 08:20N 24°14' E 118°23'14 9.7
2017-Jul-15 06:55N 24°24' E 118°33'4 9.3
2017-Jul-15 06:27N 24°27' E 118°36'6 9.1
2017-Jul-15 05:46N 24°32' E 118°41'18 7.1
2017-Jul-15 03:18N 24°49' E 118°45'2 5.2
2017-Jul-15 03:00N 24°49' E 118°43'0 0.0
2017-Jul-15 01:42N 24°49' E 118°43'0 0.0
2017-Jul-14 15:39N 24°49' E 118°43'0 0.3
2017-Jul-14 15:27N 24°49' E 118°43'41 8.4
2017-Jul-14 10:33N 24°13' E 118°22'110.4
2017-Jul-14 10:30N 24°12' E 118°22'5 9.9
2017-Jul-14 10:00N 24°09' E 118°18'5 9.9
2017-Jul-14 09:29N 24°06' E 118°14'5 9.6
2017-Jul-14 08:55N 24°02' E 118°09'  
Track history (hours):
 
Tides and Currents Weather Stations Pressure Air Temp Water Temp Dewpoint Dewpoint Depression Visibility Wind Speed Wind Dir Waves Ship Positions

Bao An Cheng 69

Last reported at 2017-Jul-22 20:26 UTC. Time now 2017-Jul-22 20:44 UTC.
Position N 24°27' E 118°01'.

Length 121 m; draft 6.5 m.

Type: Cargo ship. MMSI: 412703090.

Date/timePositionNaut miles runAvg speedWind from/ knotsBaromVisibWave heightAir tempDewpointWater temp
2017-Jul-22 20:26N 24°27' E 118°01'0 0.0
2017-Jul-22 19:53N 24°27' E 118°01'0 0.0
2017-Jul-22 19:11N 24°27' E 118°01'0 0.0
2017-Jul-22 18:56N 24°27' E 118°01'0 0.0
2017-Jul-22 18:17N 24°27' E 118°01'0 0.0
2017-Jul-22 17:56N 24°27' E 118°01'1 1.2
2017-Jul-22 17:30N 24°27' E 118°01'3 5.3
2017-Jul-22 17:00N 24°26' E 118°04'4 8.9
2017-Jul-22 16:30N 24°23' E 118°08'5 9.5
2017-Jul-22 16:00N 24°21' E 118°12'510.7
2017-Jul-22 15:31N 24°20' E 118°18'610.3
2017-Jul-22 14:57N 24°20' E 118°24'10 9.9
2017-Jul-22 13:59N 24°26' E 118°33'21 8.8
2017-Jul-22 11:38N 24°42' E 118°47'1 8.3
2017-Jul-22 11:29N 24°43' E 118°47'4 7.8
2017-Jul-22 10:59N 24°47' E 118°48'4 7.4
2017-Jul-22 10:29N 24°49' E 118°45'1 1.9
2017-Jul-22 09:57N 24°49' E 118°43'0 0.0
2017-Jul-22 09:30N 24°49' E 118°43'0 0.0
2017-Jul-22 09:00N 24°49' E 118°43'0 0.0
2017-Jul-22 08:30N 24°49' E 118°43'0 0.0
2017-Jul-22 07:48N 24°49' E 118°43'0 0.0
2017-Jul-22 07:30N 24°49' E 118°43'0 0.0
2017-Jul-22 06:54N 24°49' E 118°43'0 0.0
2017-Jul-22 06:30N 24°49' E 118°43'0 0.0
2017-Jul-22 06:00N 24°49' E 118°43'0 0.0
2017-Jul-22 05:30N 24°49' E 118°43'0 0.0
2017-Jul-22 04:12N 24°49' E 118°43'0 0.0
2017-Jul-22 03:54N 24°49' E 118°43'0 0.0
2017-Jul-22 03:18N 24°49' E 118°43'0 0.0
2017-Jul-22 03:00N 24°49' E 118°43'0 0.0
2017-Jul-22 02:24N 24°49' E 118°43'0 0.0
2017-Jul-22 01:54N 24°49' E 118°43'0 0.0
2017-Jul-22 01:30N 24°49' E 118°43'0 0.0
2017-Jul-22 00:48N 24°49' E 118°43'0 0.0
2017-Jul-22 00:30N 24°49' E 118°43'0 0.0
2017-Jul-21 23:54N 24°49' E 118°43'0 0.0
2017-Jul-21 23:30N 24°49' E 118°43'0 0.0
2017-Jul-21 23:00N 24°49' E 118°43'0 0.0
2017-Jul-21 22:24N 24°49' E 118°43'0 0.0
2017-Jul-21 22:00N 24°49' E 118°43'0 0.0
2017-Jul-21 21:24N 24°49' E 118°43'0 0.0
2017-Jul-21 20:54N 24°49' E 118°43'0 0.0
2017-Jul-21 20:24N 24°49' E 118°43'0 0.0
2017-Jul-21 20:00N 24°49' E 118°43'0 0.1
2017-Jul-21 19:30N 24°49' E 118°43'2 5.1
2017-Jul-21 19:00N 24°49' E 118°46'2 3.9
2017-Jul-21 18:28N 24°48' E 118°48'0 0.0
2017-Jul-21 17:58N 24°48' E 118°48'0 0.0
2017-Jul-21 17:22N 24°48' E 118°48'0 0.0
2017-Jul-21 16:58N 24°48' E 118°48'0 0.0
2017-Jul-21 15:22N 24°48' E 118°48'0 0.1
2017-Jul-21 14:10N 24°48' E 118°48'0 0.0
2017-Jul-21 13:58N 24°48' E 118°48'0 0.0
2017-Jul-21 12:25N 24°48' E 118°48'0 0.0
2017-Jul-21 11:01N 24°48' E 118°48'0 0.0
2017-Jul-21 10:49N 24°48' E 118°48'0 0.0
2017-Jul-21 10:22N 24°48' E 118°48'3 8.0
2017-Jul-21 10:00N 24°45' E 118°48'612.4
2017-Jul-21 09:29N 24°39' E 118°45'812.5
2017-Jul-21 08:52N 24°32' E 118°41'512.4
2017-Jul-21 08:29N 24°29' E 118°38'611.8
2017-Jul-21 08:00N 24°25' E 118°34'611.7
2017-Jul-21 07:30N 24°20' E 118°29'611.2
2017-Jul-21 07:00N 24°16' E 118°25'510.7
2017-Jul-21 06:30N 24°12' E 118°21'610.3
2017-Jul-21 05:58N 24°08' E 118°17'510.4
2017-Jul-21 05:30N 24°05' E 118°13'5 9.7
2017-Jul-21 05:00N 24°02' E 118°09'5 9.7
2017-Jul-21 04:31N 23°59' E 118°05'5 9.4
2017-Jul-21 04:00N 23°56' E 118°01'5 9.2
2017-Jul-21 03:30N 23°53' E 117°57'14 9.7
2017-Jul-21 02:06N 23°45' E 117°45'110.2
2017-Jul-21 02:00N 23°44' E 117°44'510.6
2017-Jul-21 01:30N 23°41' E 117°40'812.0
2017-Jul-21 00:50N 23°36' E 117°32'3411.5
2017-Jul-20 21:50N 23°20' E 116°60'3 9.8
2017-Jul-20 21:30N 23°18' E 116°56'510.1
2017-Jul-20 21:01N 23°16' E 116°51'5 9.8
2017-Jul-20 20:30N 23°18' E 116°47'4 7.7
2017-Jul-20 20:00N 23°21' E 116°43'0 0.2
2017-Jul-20 19:26N 23°21' E 116°43'0 0.0
2017-Jul-20 18:56N 23°21' E 116°43'0 0.0
2017-Jul-20 18:26N 23°21' E 116°43'0 0.0
2017-Jul-20 17:56N 23°21' E 116°43'0 0.0
2017-Jul-20 17:26N 23°21' E 116°43'0 0.0
2017-Jul-20 16:56N 23°21' E 116°43'0 0.0
2017-Jul-20 16:26N 23°21' E 116°43'0 0.0
2017-Jul-20 15:56N 23°21' E 116°43'0 0.0
2017-Jul-20 15:26N 23°21' E 116°43'0 0.0
2017-Jul-20 14:56N 23°21' E 116°43'0 0.0
2017-Jul-20 13:50N 23°21' E 116°43'0 0.0
2017-Jul-20 13:26N 23°21' E 116°43'0 0.0
2017-Jul-20 12:50N 23°21' E 116°43'0 0.0
2017-Jul-20 12:26N 23°21' E 116°43'0 0.0
2017-Jul-20 11:56N 23°21' E 116°43'0 0.0
2017-Jul-20 11:26N 23°21' E 116°43'0 0.0
2017-Jul-20 10:56N 23°21' E 116°43'0 0.0
2017-Jul-20 10:26N 23°21' E 116°43'0 0.0
2017-Jul-20 09:50N 23°21' E 116°43'0 0.0
2017-Jul-20 09:26N 23°21' E 116°43'0 0.0
2017-Jul-20 08:50N 23°21' E 116°43'0 0.0
2017-Jul-20 08:29N 23°21' E 116°43'0 0.0
2017-Jul-20 07:56N 23°21' E 116°43'0 0.0
2017-Jul-20 07:29N 23°21' E 116°43'0 0.0
2017-Jul-20 06:50N 23°21' E 116°43'0 0.0
2017-Jul-20 06:26N 23°21' E 116°43'0 0.0
2017-Jul-20 05:50N 23°21' E 116°43'0 0.0
2017-Jul-20 05:26N 23°21' E 116°43'0 0.0
2017-Jul-20 04:56N 23°21' E 116°43'0 0.0
2017-Jul-20 04:30N 23°21' E 116°43'0 0.0
2017-Jul-20 03:56N 23°21' E 116°43'0 0.0
2017-Jul-20 03:26N 23°21' E 116°43'0 0.0
2017-Jul-20 02:56N 23°21' E 116°43'0 0.0
2017-Jul-20 02:08N 23°21' E 116°43'0 0.0
2017-Jul-20 01:44N 23°21' E 116°43'0 0.0
2017-Jul-20 01:26N 23°21' E 116°43'0 0.0
2017-Jul-20 00:56N 23°21' E 116°43'0 0.0
2017-Jul-20 00:26N 23°21' E 116°43'0 0.6
2017-Jul-20 00:00N 23°21' E 116°44'3 6.6
2017-Jul-19 23:30N 23°19' E 116°46'4 7.4
2017-Jul-19 23:00N 23°16' E 116°50'1 1.6
2017-Jul-19 22:21N 23°17' E 116°51'0 0.1
2017-Jul-19 21:51N 23°17' E 116°51'0 0.0
2017-Jul-19 21:27N 23°17' E 116°51'0 0.0
2017-Jul-19 20:45N 23°17' E 116°51'0 0.1
2017-Jul-19 20:21N 23°17' E 116°51'0 0.1
2017-Jul-19 19:57N 23°17' E 116°51'0 0.1
2017-Jul-19 19:15N 23°17' E 116°51'0 0.4
2017-Jul-19 18:57N 23°17' E 116°50'0 0.1
2017-Jul-19 17:45N 23°17' E 116°51'0 0.0
2017-Jul-19 17:27N 23°17' E 116°51'0 0.0
2017-Jul-19 16:45N 23°17' E 116°51'0 0.0
2017-Jul-19 16:21N 23°17' E 116°51'0 0.1
2017-Jul-19 15:45N 23°17' E 116°50'0 0.1
2017-Jul-19 15:27N 23°17' E 116°50'0 0.0
2017-Jul-19 14:57N 23°17' E 116°50'0 0.1
2017-Jul-19 14:09N 23°17' E 116°50'0 0.1
2017-Jul-19 13:57N 23°17' E 116°50'0 0.1
2017-Jul-19 12:09N 23°17' E 116°51'0 0.0
2017-Jul-19 11:51N 23°17' E 116°51'0 0.0
2017-Jul-19 11:27N 23°17' E 116°51'0 0.0
2017-Jul-19 10:57N 23°17' E 116°51'0 0.0
2017-Jul-19 10:27N 23°17' E 116°51'0 0.0
2017-Jul-19 09:57N 23°17' E 116°51'0 0.0
2017-Jul-19 09:15N 23°17' E 116°51'0 0.0
2017-Jul-19 08:57N 23°17' E 116°51'0 0.0
2017-Jul-19 08:21N 23°17' E 116°51'0 0.0
2017-Jul-19 07:57N 23°17' E 116°51'0 0.0
2017-Jul-19 06:55N 23°17' E 116°51'0 0.1
2017-Jul-19 06:03N 23°17' E 116°50'0 0.2
2017-Jul-19 05:57N 23°17' E 116°50'0 0.1
2017-Jul-19 05:09N 23°17' E 116°50'0 0.0
2017-Jul-19 04:33N 23°17' E 116°50'0 0.1
2017-Jul-19 04:27N 23°17' E 116°50'0 0.0
2017-Jul-19 03:57N 23°17' E 116°50'0 0.0
2017-Jul-19 03:27N 23°17' E 116°50'0 0.0
2017-Jul-19 02:21N 23°17' E 116°50'0 0.1
2017-Jul-19 01:33N 23°17' E 116°50'0 0.1
2017-Jul-19 01:27N 23°17' E 116°50'0 0.3
2017-Jul-19 00:51N 23°17' E 116°50'0 0.0
2017-Jul-19 00:21N 23°17' E 116°50'0 0.0
2017-Jul-18 23:57N 23°17' E 116°50'0 0.0
2017-Jul-18 23:27N 23°17' E 116°50'0 0.0
2017-Jul-18 22:57N 23°17' E 116°50'0 0.0
2017-Jul-18 22:27N 23°17' E 116°50'0 0.1
2017-Jul-18 21:57N 23°17' E 116°51'0 0.0
2017-Jul-18 21:30N 23°17' E 116°51'0 0.0
2017-Jul-18 21:00N 23°17' E 116°51'0 0.0
2017-Jul-18 20:30N 23°17' E 116°51'0 0.0
2017-Jul-18 19:58N 23°17' E 116°51'0 0.0
2017-Jul-18 19:29N 23°17' E 116°51'0 0.1
2017-Jul-18 19:00N 23°17' E 116°50'0 0.1
2017-Jul-18 18:30N 23°17' E 116°51'1 1.0
2017-Jul-18 18:00N 23°17' E 116°50'4 7.3
2017-Jul-18 17:30N 23°18' E 116°54'5 9.0
2017-Jul-18 16:54N 23°20' E 116°59'37 9.2
2017-Jul-18 12:53N 23°38' E 117°35'3 8.5
2017-Jul-18 12:30N 23°40' E 117°37'5 9.1
2017-Jul-18 11:59N 23°42' E 117°42'25 8.6
2017-Jul-18 09:03N 23°58' E 118°03'0 6.2
2017-Jul-18 09:00N 23°58' E 118°04'4 8.6
2017-Jul-18 08:29N 24°01' E 118°07'4 8.3
2017-Jul-18 08:00N 24°04' E 118°11'4 8.1
2017-Jul-18 07:29N 24°06' E 118°14'4 8.5
2017-Jul-18 06:59N 24°09' E 118°18'5 8.2
2017-Jul-18 06:20N 24°13' E 118°22'3 8.5
2017-Jul-18 06:00N 24°15' E 118°24'5 8.3
2017-Jul-18 05:25N 24°18' E 118°27'4 8.3
2017-Jul-18 05:00N 24°21' E 118°30'4 8.3
2017-Jul-18 04:30N 24°24' E 118°33'4 8.5
2017-Jul-18 04:00N 24°27' E 118°37'14 8.4
2017-Jul-18 02:23N 24°38' E 118°45'3 9.2
2017-Jul-18 02:00N 24°41' E 118°47'5 9.5
2017-Jul-18 01:30N 24°46' E 118°48'4 8.7
2017-Jul-18 00:59N 24°49' E 118°45'1 2.6
2017-Jul-18 00:30N 24°49' E 118°43'0 0.0
2017-Jul-17 23:56N 24°49' E 118°43'0 0.0
2017-Jul-17 23:26N 24°49' E 118°43'0 0.0
2017-Jul-17 22:56N 24°49' E 118°43'0 0.0
2017-Jul-17 22:20N 24°49' E 118°43'0 0.0
2017-Jul-17 22:00N 24°49' E 118°43'0 0.0
2017-Jul-17 21:22N 24°49' E 118°43'0 0.0
2017-Jul-17 20:40N 24°49' E 118°43'0 0.0
2017-Jul-17 20:22N 24°49' E 118°43'0 0.0
2017-Jul-17 19:58N 24°49' E 118°43'0 0.0
2017-Jul-17 19:22N 24°49' E 118°43'0 0.0
2017-Jul-17 18:58N 24°49' E 118°43'0 0.0
2017-Jul-17 18:28N 24°49' E 118°43'0 0.0
2017-Jul-17 17:58N 24°49' E 118°43'0 0.0
2017-Jul-17 17:28N 24°49' E 118°43'0 0.0
2017-Jul-17 16:46N 24°49' E 118°43'0 0.0
2017-Jul-17 16:28N 24°49' E 118°43'0 0.0
2017-Jul-17 15:58N 24°49' E 118°43'0 0.0
2017-Jul-17 09:48N 24°49' E 118°43'0 0.0
2017-Jul-17 08:58N 24°49' E 118°43'24 1.9
2017-Jul-16 20:13N 24°26' E 118°35'310.9
2017-Jul-16 19:58N 24°24' E 118°32'511.0
2017-Jul-16 19:29N 24°21' E 118°28'511.0
2017-Jul-16 19:00N 24°18' E 118°23'510.8
2017-Jul-16 18:30N 24°15' E 118°18'611.0
2017-Jul-16 18:00N 24°11' E 118°14'611.4
2017-Jul-16 17:31N 24°07' E 118°09'811.6
2017-Jul-16 16:50N 24°01' E 118°03'5 0.2
2017-Jul-15 10:09N 24°02' E 118°09'210.0
2017-Jul-15 09:59N 24°03' E 118°10'5 9.8
2017-Jul-15 09:26N 24°06' E 118°14'5 9.8
2017-Jul-15 08:55N 24°10' E 118°18'6 9.9
2017-Jul-15 08:20N 24°14' E 118°23'14 9.7
2017-Jul-15 06:55N 24°24' E 118°33'4 9.3
2017-Jul-15 06:27N 24°27' E 118°36'6 9.1
2017-Jul-15 05:46N 24°32' E 118°41'18 7.1
2017-Jul-15 03:18N 24°49' E 118°45'2 5.2
2017-Jul-15 03:00N 24°49' E 118°43'0 0.0
2017-Jul-15 01:42N 24°49' E 118°43'0 0.0
2017-Jul-14 15:39N 24°49' E 118°43'0 0.3
2017-Jul-14 15:27N 24°49' E 118°43'41 8.4
2017-Jul-14 10:33N 24°13' E 118°22'110.4
2017-Jul-14 10:30N 24°12' E 118°22'5 9.9
2017-Jul-14 10:00N 24°09' E 118°18'5 9.9
2017-Jul-14 09:29N 24°06' E 118°14'5 9.6
2017-Jul-14 08:55N 24°02' E 118°09'  

Dump ship's entire track history